sensor_id;sensor_type;location;lat;lon;timestamp;P1;durP1;ratioP1;P2;durP2;ratioP2
34741;SDS011;20968;42.696;23.360;2023-05-10T00:01:58;4.88;;;3.47;;
34741;SDS011;20968;42.696;23.360;2023-05-10T00:04:23;11.18;;;6.57;;
34741;SDS011;20968;42.696;23.360;2023-05-10T00:06:53;7.47;;;5.22;;
34741;SDS011;20968;42.696;23.360;2023-05-10T00:09:19;15.07;;;6.07;;
34741;SDS011;20968;42.696;23.360;2023-05-10T00:11:45;7.63;;;6.10;;
34741;SDS011;20968;42.696;23.360;2023-05-10T00:17:01;9.88;;;6.35;;
34741;SDS011;20968;42.696;23.360;2023-05-10T00:19:29;10.15;;;6.53;;
34741;SDS011;20968;42.696;23.360;2023-05-10T00:21:55;11.98;;;7.20;;
34741;SDS011;20968;42.696;23.360;2023-05-10T00:24:24;9.43;;;7.18;;
34741;SDS011;20968;42.696;23.360;2023-05-10T00:26:49;9.27;;;6.45;;
34741;SDS011;20968;42.696;23.360;2023-05-10T00:29:19;9.25;;;6.28;;
34741;SDS011;20968;42.696;23.360;2023-05-10T00:31:45;6.45;;;5.45;;
34741;SDS011;20968;42.696;23.360;2023-05-10T00:34:13;15.65;;;6.72;;
34741;SDS011;20968;42.696;23.360;2023-05-10T00:36:40;8.65;;;6.78;;
34741;SDS011;20968;42.696;23.360;2023-05-10T00:39:08;9.07;;;6.13;;
34741;SDS011;20968;42.696;23.360;2023-05-10T00:41:37;8.50;;;7.40;;
34741;SDS011;20968;42.696;23.360;2023-05-10T00:44:02;10.85;;;6.82;;
34741;SDS011;20968;42.696;23.360;2023-05-10T00:46:30;8.75;;;6.75;;
34741;SDS011;20968;42.696;23.360;2023-05-10T00:48:59;13.40;;;7.05;;
34741;SDS011;20968;42.696;23.360;2023-05-10T00:51:27;10.40;;;6.72;;
34741;SDS011;20968;42.696;23.360;2023-05-10T00:53:53;9.50;;;6.80;;
34741;SDS011;20968;42.696;23.360;2023-05-10T00:56:21;9.15;;;7.28;;
34741;SDS011;20968;42.696;23.360;2023-05-10T00:58:48;9.25;;;7.38;;
34741;SDS011;20968;42.696;23.360;2023-05-10T01:01:20;6.93;;;6.07;;
34741;SDS011;20968;42.696;23.360;2023-05-10T01:03:47;11.23;;;6.68;;
34741;SDS011;20968;42.696;23.360;2023-05-10T01:06:36;10.90;;;6.55;;
34741;SDS011;20968;42.696;23.360;2023-05-10T01:09:08;8.68;;;6.50;;
34741;SDS011;20968;42.696;23.360;2023-05-10T01:11:40;9.18;;;7.10;;
34741;SDS011;20968;42.696;23.360;2023-05-10T01:14:06;7.53;;;6.53;;
34741;SDS011;20968;42.696;23.360;2023-05-10T01:16:43;7.72;;;6.47;;
34741;SDS011;20968;42.696;23.360;2023-05-10T01:19:14;9.07;;;7.10;;
34741;SDS011;20968;42.696;23.360;2023-05-10T01:38:45;6.75;;;5.97;;
34741;SDS011;20968;42.696;23.360;2023-05-10T01:41:24;5.13;;;4.45;;
34741;SDS011;20968;42.696;23.360;2023-05-10T01:44:27;6.90;;;5.07;;
34741;SDS011;20968;42.696;23.360;2023-05-10T01:47:04;11.02;;;4.90;;
34741;SDS011;20968;42.696;23.360;2023-05-10T01:49:53;5.85;;;5.25;;
34741;SDS011;20968;42.696;23.360;2023-05-10T01:52:42;5.63;;;4.60;;
34741;SDS011;20968;42.696;23.360;2023-05-10T01:55:18;5.43;;;4.50;;
34741;SDS011;20968;42.696;23.360;2023-05-10T01:58:02;7.07;;;4.53;;
34741;SDS011;20968;42.696;23.360;2023-05-10T02:00:31;7.63;;;4.10;;
34741;SDS011;20968;42.696;23.360;2023-05-10T02:03:05;6.13;;;4.60;;
34741;SDS011;20968;42.696;23.360;2023-05-10T02:05:39;5.18;;;4.43;;
34741;SDS011;20968;42.696;23.360;2023-05-10T02:11:14;5.38;;;4.47;;
34741;SDS011;20968;42.696;23.360;2023-05-10T02:13:45;5.30;;;4.30;;
34741;SDS011;20968;42.696;23.360;2023-05-10T02:16:23;9.45;;;5.68;;
34741;SDS011;20968;42.696;23.360;2023-05-10T02:18:53;5.45;;;4.57;;
34741;SDS011;20968;42.696;23.360;2023-05-10T02:21:19;5.10;;;4.40;;
34741;SDS011;20968;42.696;23.360;2023-05-10T02:23:50;5.72;;;4.65;;
34741;SDS011;20968;42.696;23.360;2023-05-10T02:26:21;4.93;;;4.43;;
34741;SDS011;20968;42.696;23.360;2023-05-10T02:28:48;4.47;;;3.55;;
34741;SDS011;20968;42.696;23.360;2023-05-10T02:31:18;5.38;;;4.35;;
34741;SDS011;20968;42.696;23.360;2023-05-10T02:33:49;4.43;;;3.80;;
34741;SDS011;20968;42.696;23.360;2023-05-10T02:36:16;5.10;;;4.50;;
34741;SDS011;20968;42.696;23.360;2023-05-10T02:38:50;4.45;;;3.60;;
34741;SDS011;20968;42.696;23.360;2023-05-10T02:41:23;7.53;;;3.97;;
34741;SDS011;20968;42.696;23.360;2023-05-10T02:43:55;6.57;;;4.38;;
34741;SDS011;20968;42.696;23.360;2023-05-10T02:46:30;10.77;;;3.75;;
34741;SDS011;20968;42.696;23.360;2023-05-10T02:48:55;5.10;;;4.20;;
34741;SDS011;20968;42.696;23.360;2023-05-10T02:51:24;4.55;;;3.90;;
34741;SDS011;20968;42.696;23.360;2023-05-10T02:54:00;5.82;;;4.07;;
34741;SDS011;20968;42.696;23.360;2023-05-10T02:56:31;5.50;;;3.65;;
34741;SDS011;20968;42.696;23.360;2023-05-10T02:59:04;6.40;;;2.97;;
34741;SDS011;20968;42.696;23.360;2023-05-10T03:01:33;5.85;;;3.80;;
34741;SDS011;20968;42.696;23.360;2023-05-10T03:04:21;5.95;;;3.83;;
34741;SDS011;20968;42.696;23.360;2023-05-10T03:06:54;9.00;;;3.97;;
34741;SDS011;20968;42.696;23.360;2023-05-10T03:09:20;5.07;;;3.80;;
34741;SDS011;20968;42.696;23.360;2023-05-10T03:17:40;8.27;;;4.32;;
34741;SDS011;20968;42.696;23.360;2023-05-10T03:20:37;13.77;;;4.22;;
34741;SDS011;20968;42.696;23.360;2023-05-10T03:23:12;6.78;;;4.05;;
34741;SDS011;20968;42.696;23.360;2023-05-10T03:25:46;8.40;;;4.53;;
34741;SDS011;20968;42.696;23.360;2023-05-10T03:28:17;6.82;;;3.88;;
34741;SDS011;20968;42.696;23.360;2023-05-10T03:30:51;6.07;;;4.30;;
34741;SDS011;20968;42.696;23.360;2023-05-10T03:33:21;5.90;;;4.57;;
34741;SDS011;20968;42.696;23.360;2023-05-10T03:35:55;10.02;;;5.40;;
34741;SDS011;20968;42.696;23.360;2023-05-10T03:38:25;7.15;;;4.35;;
34741;SDS011;20968;42.696;23.360;2023-05-10T03:40:51;11.30;;;4.45;;
34741;SDS011;20968;42.696;23.360;2023-05-10T03:43:22;9.45;;;4.20;;
34741;SDS011;20968;42.696;23.360;2023-05-10T03:45:47;5.88;;;4.35;;
34741;SDS011;20968;42.696;23.360;2023-05-10T03:48:19;8.20;;;4.47;;
34741;SDS011;20968;42.696;23.360;2023-05-10T03:50:45;6.38;;;4.72;;
34741;SDS011;20968;42.696;23.360;2023-05-10T03:53:38;8.55;;;4.28;;
34741;SDS011;20968;42.696;23.360;2023-05-10T03:56:26;6.25;;;4.30;;
34741;SDS011;20968;42.696;23.360;2023-05-10T03:58:54;6.68;;;4.72;;
34741;SDS011;20968;42.696;23.360;2023-05-10T04:01:27;9.13;;;5.13;;
34741;SDS011;20968;42.696;23.360;2023-05-10T04:04:13;6.78;;;4.72;;
34741;SDS011;20968;42.696;23.360;2023-05-10T04:06:40;7.00;;;3.85;;
34741;SDS011;20968;42.696;23.360;2023-05-10T04:09:13;7.25;;;4.53;;
34741;SDS011;20968;42.696;23.360;2023-05-10T04:11:53;4.32;;;3.58;;
34741;SDS011;20968;42.696;23.360;2023-05-10T04:14:20;8.50;;;4.32;;
34741;SDS011;20968;42.696;23.360;2023-05-10T04:16:48;8.63;;;3.55;;
34741;SDS011;20968;42.696;23.360;2023-05-10T04:19:14;5.68;;;4.13;;
34741;SDS011;20968;42.696;23.360;2023-05-10T04:21:41;14.57;;;7.72;;
34741;SDS011;20968;42.696;23.360;2023-05-10T04:24:06;6.57;;;4.22;;
34741;SDS011;20968;42.696;23.360;2023-05-10T04:26:33;5.40;;;3.95;;
34741;SDS011;20968;42.696;23.360;2023-05-10T04:29:02;6.07;;;3.85;;
34741;SDS011;20968;42.696;23.360;2023-05-10T04:31:28;7.75;;;4.72;;
34741;SDS011;20968;42.696;23.360;2023-05-10T04:33:57;5.55;;;3.78;;
34741;SDS011;20968;42.696;23.360;2023-05-10T04:36:23;5.15;;;3.85;;
34741;SDS011;20968;42.696;23.360;2023-05-10T04:38:56;5.45;;;3.85;;
34741;SDS011;20968;42.696;23.360;2023-05-10T04:41:21;5.13;;;3.78;;
34741;SDS011;20968;42.696;23.360;2023-05-10T04:43:46;7.07;;;4.80;;
34741;SDS011;20968;42.696;23.360;2023-05-10T04:46:14;8.82;;;4.75;;
34741;SDS011;20968;42.696;23.360;2023-05-10T04:48:42;8.30;;;6.45;;
34741;SDS011;20968;42.696;23.360;2023-05-10T04:51:08;6.97;;;4.22;;
34741;SDS011;20968;42.696;23.360;2023-05-10T04:56:06;8.25;;;3.88;;
34741;SDS011;20968;42.696;23.360;2023-05-10T04:58:34;5.88;;;4.68;;
34741;SDS011;20968;42.696;23.360;2023-05-10T05:01:04;9.65;;;6.32;;
34741;SDS011;20968;42.696;23.360;2023-05-10T05:03:31;12.48;;;4.88;;
34741;SDS011;20968;42.696;23.360;2023-05-10T05:05:58;5.63;;;4.50;;
34741;SDS011;20968;42.696;23.360;2023-05-10T05:08:24;7.10;;;4.75;;
34741;SDS011;20968;42.696;23.360;2023-05-10T05:10:50;11.85;;;4.35;;
34741;SDS011;20968;42.696;23.360;2023-05-10T05:13:16;7.20;;;4.72;;
34741;SDS011;20968;42.696;23.360;2023-05-10T05:15:54;12.60;;;5.28;;
34741;SDS011;20968;42.696;23.360;2023-05-10T05:20:56;13.30;;;6.30;;
34741;SDS011;20968;42.696;23.360;2023-05-10T05:23:22;12.35;;;5.80;;
34741;SDS011;20968;42.696;23.360;2023-05-10T05:25:51;7.57;;;5.65;;
34741;SDS011;20968;42.696;23.360;2023-05-10T05:28:17;7.10;;;5.18;;
34741;SDS011;20968;42.696;23.360;2023-05-10T05:30:46;8.38;;;5.18;;
34741;SDS011;20968;42.696;23.360;2023-05-10T05:33:13;7.93;;;4.65;;
34741;SDS011;20968;42.696;23.360;2023-05-10T05:35:40;6.82;;;4.95;;
34741;SDS011;20968;42.696;23.360;2023-05-10T05:38:06;6.95;;;5.25;;
34741;SDS011;20968;42.696;23.360;2023-05-10T05:40:32;7.28;;;5.65;;
34741;SDS011;20968;42.696;23.360;2023-05-10T05:42:57;11.20;;;5.30;;
34741;SDS011;20968;42.696;23.360;2023-05-10T05:45:24;8.30;;;5.30;;
34741;SDS011;20968;42.696;23.360;2023-05-10T05:47:50;7.35;;;5.50;;
34741;SDS011;20968;42.696;23.360;2023-05-10T05:50:15;7.53;;;6.10;;
34741;SDS011;20968;42.696;23.360;2023-05-10T05:52:43;10.15;;;5.93;;
34741;SDS011;20968;42.696;23.360;2023-05-10T05:55:08;13.93;;;5.85;;
34741;SDS011;20968;42.696;23.360;2023-05-10T05:57:34;8.15;;;5.78;;
34741;SDS011;20968;42.696;23.360;2023-05-10T06:00:01;9.60;;;6.07;;
34741;SDS011;20968;42.696;23.360;2023-05-10T06:02:28;9.73;;;5.55;;
34741;SDS011;20968;42.696;23.360;2023-05-10T06:04:59;9.50;;;5.75;;
34741;SDS011;20968;42.696;23.360;2023-05-10T06:07:25;9.85;;;5.25;;
34741;SDS011;20968;42.696;23.360;2023-05-10T06:09:57;6.63;;;5.13;;
34741;SDS011;20968;42.696;23.360;2023-05-10T06:12:27;7.07;;;5.38;;
34741;SDS011;20968;42.696;23.360;2023-05-10T06:14:53;12.00;;;5.57;;
34741;SDS011;20968;42.696;23.360;2023-05-10T06:17:18;11.25;;;5.45;;
34741;SDS011;20968;42.696;23.360;2023-05-10T06:19:44;9.77;;;5.90;;
34741;SDS011;20968;42.696;23.360;2023-05-10T06:22:25;13.20;;;5.55;;
34741;SDS011;20968;42.696;23.360;2023-05-10T06:24:53;10.18;;;6.47;;
34741;SDS011;20968;42.696;23.360;2023-05-10T06:27:21;12.30;;;5.10;;
34741;SDS011;20968;42.696;23.360;2023-05-10T06:29:48;10.32;;;6.28;;
34741;SDS011;20968;42.696;23.360;2023-05-10T06:32:16;17.85;;;8.27;;
34741;SDS011;20968;42.696;23.360;2023-05-10T06:34:47;9.15;;;5.63;;
34741;SDS011;20968;42.696;23.360;2023-05-10T06:37:16;14.95;;;5.93;;
34741;SDS011;20968;42.696;23.360;2023-05-10T06:39:43;7.88;;;5.07;;
34741;SDS011;20968;42.696;23.360;2023-05-10T06:42:09;13.25;;;5.20;;
34741;SDS011;20968;42.696;23.360;2023-05-10T06:44:35;16.63;;;6.32;;
34741;SDS011;20968;42.696;23.360;2023-05-10T06:47:04;13.18;;;6.45;;
34741;SDS011;20968;42.696;23.360;2023-05-10T06:49:29;8.65;;;6.13;;
34741;SDS011;20968;42.696;23.360;2023-05-10T06:51:55;9.45;;;5.10;;
34741;SDS011;20968;42.696;23.360;2023-05-10T06:54:22;9.45;;;5.50;;
34741;SDS011;20968;42.696;23.360;2023-05-10T06:56:49;7.07;;;5.03;;
34741;SDS011;20968;42.696;23.360;2023-05-10T06:59:15;9.77;;;4.78;;
34741;SDS011;20968;42.696;23.360;2023-05-10T07:01:42;7.55;;;4.80;;
34741;SDS011;20968;42.696;23.360;2023-05-10T07:04:15;7.45;;;5.07;;
34741;SDS011;20968;42.696;23.360;2023-05-10T07:06:40;8.05;;;5.18;;
34741;SDS011;20968;42.696;23.360;2023-05-10T07:09:11;8.05;;;4.32;;
34741;SDS011;20968;42.696;23.360;2023-05-10T07:14:42;8.95;;;5.90;;
34741;SDS011;20968;42.696;23.360;2023-05-10T07:17:08;6.40;;;4.40;;
34741;SDS011;20968;42.696;23.360;2023-05-10T07:19:40;9.75;;;5.15;;
34741;SDS011;20968;42.696;23.360;2023-05-10T07:22:30;12.55;;;6.45;;
34741;SDS011;20968;42.696;23.360;2023-05-10T07:24:58;7.88;;;4.13;;
34741;SDS011;20968;42.696;23.360;2023-05-10T07:27:30;6.72;;;4.50;;
34741;SDS011;20968;42.696;23.360;2023-05-10T07:29:56;6.90;;;4.85;;
34741;SDS011;20968;42.696;23.360;2023-05-10T07:32:26;12.00;;;4.93;;
34741;SDS011;20968;42.696;23.360;2023-05-10T07:34:55;9.25;;;4.07;;
34741;SDS011;20968;42.696;23.360;2023-05-10T07:37:30;6.20;;;4.93;;
34741;SDS011;20968;42.696;23.360;2023-05-10T07:39:58;7.53;;;4.45;;
34741;SDS011;20968;42.696;23.360;2023-05-10T07:42:46;8.48;;;4.93;;
34741;SDS011;20968;42.696;23.360;2023-05-10T07:45:17;7.90;;;5.20;;
34741;SDS011;20968;42.696;23.360;2023-05-10T07:47:50;5.38;;;4.10;;
34741;SDS011;20968;42.696;23.360;2023-05-10T07:53:53;9.57;;;4.93;;
34741;SDS011;20968;42.696;23.360;2023-05-10T07:56:25;7.15;;;4.78;;
34741;SDS011;20968;42.696;23.360;2023-05-10T07:59:03;10.23;;;6.53;;
34741;SDS011;20968;42.696;23.360;2023-05-10T08:01:41;7.28;;;5.65;;
34741;SDS011;20968;42.696;23.360;2023-05-10T08:04:13;9.52;;;7.05;;
34741;SDS011;20968;42.696;23.360;2023-05-10T08:09:11;14.65;;;8.02;;
34741;SDS011;20968;42.696;23.360;2023-05-10T08:11:47;8.10;;;5.97;;
34741;SDS011;20968;42.696;23.360;2023-05-10T08:14:24;13.60;;;6.35;;
34741;SDS011;20968;42.696;23.360;2023-05-10T08:16:50;8.70;;;5.88;;
34741;SDS011;20968;42.696;23.360;2023-05-10T08:19:27;6.97;;;4.78;;
34741;SDS011;20968;42.696;23.360;2023-05-10T08:22:05;5.43;;;4.78;;
34741;SDS011;20968;42.696;23.360;2023-05-10T08:24:50;7.63;;;6.22;;
34741;SDS011;20968;42.696;23.360;2023-05-10T08:27:27;8.88;;;5.60;;
34741;SDS011;20968;42.696;23.360;2023-05-10T08:29:55;8.00;;;5.05;;
34741;SDS011;20968;42.696;23.360;2023-05-10T08:32:44;10.68;;;5.50;;
34741;SDS011;20968;42.696;23.360;2023-05-10T08:35:17;9.13;;;5.50;;
34741;SDS011;20968;42.696;23.360;2023-05-10T08:37:44;12.13;;;7.18;;
34741;SDS011;20968;42.696;23.360;2023-05-10T08:40:15;9.48;;;6.50;;
34741;SDS011;20968;42.696;23.360;2023-05-10T08:42:55;8.68;;;6.15;;
34741;SDS011;20968;42.696;23.360;2023-05-10T08:45:39;11.13;;;7.35;;
34741;SDS011;20968;42.696;23.360;2023-05-10T08:48:07;11.57;;;7.40;;
34741;SDS011;20968;42.696;23.360;2023-05-10T08:50:40;15.43;;;8.57;;
34741;SDS011;20968;42.696;23.360;2023-05-10T08:58:10;17.27;;;7.53;;
34741;SDS011;20968;42.696;23.360;2023-05-10T09:00:44;10.82;;;6.13;;
34741;SDS011;20968;42.696;23.360;2023-05-10T09:03:11;9.10;;;6.32;;
34741;SDS011;20968;42.696;23.360;2023-05-10T09:08:15;9.00;;;6.28;;
34741;SDS011;20968;42.696;23.360;2023-05-10T09:10:46;11.15;;;6.25;;
34741;SDS011;20968;42.696;23.360;2023-05-10T09:13:16;10.27;;;6.75;;
34741;SDS011;20968;42.696;23.360;2023-05-10T09:15:51;7.25;;;5.65;;
34741;SDS011;20968;42.696;23.360;2023-05-10T09:18:18;8.43;;;5.55;;
34741;SDS011;20968;42.696;23.360;2023-05-10T09:20:43;14.02;;;6.60;;
34741;SDS011;20968;42.696;23.360;2023-05-10T09:23:12;10.05;;;6.72;;
34741;SDS011;20968;42.696;23.360;2023-05-10T09:25:38;11.10;;;6.03;;
34741;SDS011;20968;42.696;23.360;2023-05-10T09:28:14;8.13;;;5.35;;
34741;SDS011;20968;42.696;23.360;2023-05-10T09:30:41;10.52;;;6.57;;
34741;SDS011;20968;42.696;23.360;2023-05-10T09:33:17;8.32;;;6.50;;
34741;SDS011;20968;42.696;23.360;2023-05-10T09:35:43;7.45;;;6.10;;
34741;SDS011;20968;42.696;23.360;2023-05-10T09:38:08;7.57;;;6.45;;
34741;SDS011;20968;42.696;23.360;2023-05-10T09:40:36;9.88;;;7.10;;
34741;SDS011;20968;42.696;23.360;2023-05-10T09:45:34;10.25;;;5.85;;
34741;SDS011;20968;42.696;23.360;2023-05-10T09:48:08;6.85;;;5.18;;
34741;SDS011;20968;42.696;23.360;2023-05-10T09:50:36;7.55;;;5.38;;
34741;SDS011;20968;42.696;23.360;2023-05-10T09:53:05;7.88;;;4.90;;
34741;SDS011;20968;42.696;23.360;2023-05-10T09:55:39;7.30;;;5.63;;
34741;SDS011;20968;42.696;23.360;2023-05-10T09:58:10;6.20;;;5.25;;
34741;SDS011;20968;42.696;23.360;2023-05-10T10:00:36;7.63;;;5.95;;
34741;SDS011;20968;42.696;23.360;2023-05-10T10:03:03;10.75;;;5.72;;
34741;SDS011;20968;42.696;23.360;2023-05-10T10:05:30;9.02;;;4.70;;
34741;SDS011;20968;42.696;23.360;2023-05-10T10:07:56;7.47;;;4.85;;
34741;SDS011;20968;42.696;23.360;2023-05-10T10:10:26;7.55;;;5.05;;
34741;SDS011;20968;42.696;23.360;2023-05-10T10:12:53;5.45;;;4.90;;
34741;SDS011;20968;42.696;23.360;2023-05-10T10:15:30;6.07;;;4.28;;
34741;SDS011;20968;42.696;23.360;2023-05-10T10:18:05;11.75;;;4.82;;
34741;SDS011;20968;42.696;23.360;2023-05-10T10:20:30;9.02;;;4.40;;
34741;SDS011;20968;42.696;23.360;2023-05-10T10:22:57;5.30;;;4.40;;
34741;SDS011;20968;42.696;23.360;2023-05-10T10:25:24;8.55;;;5.25;;
34741;SDS011;20968;42.696;23.360;2023-05-10T10:30:47;4.93;;;3.92;;
34741;SDS011;20968;42.696;23.360;2023-05-10T10:34:08;5.68;;;4.45;;
34741;SDS011;20968;42.696;23.360;2023-05-10T10:37:08;5.82;;;4.25;;
34741;SDS011;20968;42.696;23.360;2023-05-10T10:39:32;4.82;;;3.80;;
34741;SDS011;20968;42.696;23.360;2023-05-10T10:42:01;6.97;;;4.68;;
34741;SDS011;20968;42.696;23.360;2023-05-10T10:49:26;7.28;;;4.10;;
34741;SDS011;20968;42.696;23.360;2023-05-10T10:55:07;5.07;;;3.92;;
34741;SDS011;20968;42.696;23.360;2023-05-10T10:57:50;6.70;;;3.63;;
34741;SDS011;20968;42.696;23.360;2023-05-10T11:02:55;7.18;;;4.68;;
34741;SDS011;20968;42.696;23.360;2023-05-10T11:05:43;11.98;;;5.47;;
34741;SDS011;20968;42.696;23.360;2023-05-10T11:08:21;9.65;;;4.70;;
34741;SDS011;20968;42.696;23.360;2023-05-10T11:13:30;7.88;;;4.63;;
34741;SDS011;20968;42.696;23.360;2023-05-10T11:16:15;10.80;;;4.70;;
34741;SDS011;20968;42.696;23.360;2023-05-10T11:19:02;6.63;;;5.03;;
34741;SDS011;20968;42.696;23.360;2023-05-10T11:21:32;9.27;;;4.87;;
34741;SDS011;20968;42.696;23.360;2023-05-10T11:24:01;7.55;;;5.20;;
34741;SDS011;20968;42.696;23.360;2023-05-10T11:26:45;5.25;;;4.30;;
34741;SDS011;20968;42.696;23.360;2023-05-10T11:29:12;4.13;;;3.72;;
34741;SDS011;20968;42.696;23.360;2023-05-10T11:31:42;5.30;;;3.83;;
34741;SDS011;20968;42.696;23.360;2023-05-10T11:34:10;5.68;;;3.97;;
34741;SDS011;20968;42.696;23.360;2023-05-10T11:36:53;5.63;;;3.88;;
34741;SDS011;20968;42.696;23.360;2023-05-10T11:39:20;14.90;;;4.60;;
34741;SDS011;20968;42.696;23.360;2023-05-10T11:41:49;8.45;;;4.85;;
34741;SDS011;20968;42.696;23.360;2023-05-10T11:44:15;9.15;;;4.38;;
34741;SDS011;20968;42.696;23.360;2023-05-10T11:46:41;5.90;;;4.28;;
34741;SDS011;20968;42.696;23.360;2023-05-10T11:49:06;12.85;;;4.07;;
34741;SDS011;20968;42.696;23.360;2023-05-10T11:51:34;10.48;;;4.63;;
34741;SDS011;20968;42.696;23.360;2023-05-10T11:54:08;5.47;;;3.97;;
34741;SDS011;20968;42.696;23.360;2023-05-10T11:56:38;10.32;;;4.45;;
34741;SDS011;20968;42.696;23.360;2023-05-10T11:59:04;6.55;;;4.60;;
34741;SDS011;20968;42.696;23.360;2023-05-10T12:01:31;7.35;;;4.50;;
34741;SDS011;20968;42.696;23.360;2023-05-10T12:03:57;6.85;;;4.75;;
34741;SDS011;20968;42.696;23.360;2023-05-10T12:06:32;7.55;;;4.68;;
34741;SDS011;20968;42.696;23.360;2023-05-10T12:09:05;5.88;;;4.28;;
34741;SDS011;20968;42.696;23.360;2023-05-10T12:11:55;10.65;;;4.28;;
34741;SDS011;20968;42.696;23.360;2023-05-10T12:25:12;9.10;;;5.10;;
34741;SDS011;20968;42.696;23.360;2023-05-10T12:27:39;13.18;;;5.47;;
34741;SDS011;20968;42.696;23.360;2023-05-10T12:30:06;9.43;;;5.18;;
34741;SDS011;20968;42.696;23.360;2023-05-10T12:32:40;6.05;;;4.85;;
34741;SDS011;20968;42.696;23.360;2023-05-10T12:35:07;9.98;;;5.10;;
34741;SDS011;20968;42.696;23.360;2023-05-10T12:37:33;9.52;;;5.68;;
34741;SDS011;20968;42.696;23.360;2023-05-10T12:40:04;9.52;;;5.03;;
34741;SDS011;20968;42.696;23.360;2023-05-10T12:42:31;8.70;;;4.65;;
34741;SDS011;20968;42.696;23.360;2023-05-10T12:44:59;7.45;;;5.50;;
34741;SDS011;20968;42.696;23.360;2023-05-10T12:47:25;5.80;;;4.90;;
34741;SDS011;20968;42.696;23.360;2023-05-10T12:49:53;5.70;;;4.50;;
34741;SDS011;20968;42.696;23.360;2023-05-10T12:52:19;7.60;;;5.20;;
34741;SDS011;20968;42.696;23.360;2023-05-10T12:54:45;8.40;;;5.22;;
34741;SDS011;20968;42.696;23.360;2023-05-10T12:57:13;14.15;;;5.90;;
34741;SDS011;20968;42.696;23.360;2023-05-10T12:59:41;7.60;;;4.35;;
34741;SDS011;20968;42.696;23.360;2023-05-10T13:02:22;10.10;;;5.30;;
34741;SDS011;20968;42.696;23.360;2023-05-10T13:04:49;10.55;;;5.30;;
34741;SDS011;20968;42.696;23.360;2023-05-10T13:07:15;5.80;;;5.07;;
34741;SDS011;20968;42.696;23.360;2023-05-10T13:09:41;8.40;;;5.28;;
34741;SDS011;20968;42.696;23.360;2023-05-10T13:12:08;9.95;;;5.43;;
34741;SDS011;20968;42.696;23.360;2023-05-10T13:14:33;6.78;;;5.03;;
34741;SDS011;20968;42.696;23.360;2023-05-10T13:16:59;14.25;;;5.72;;
34741;SDS011;20968;42.696;23.360;2023-05-10T13:19:25;15.80;;;5.65;;
34741;SDS011;20968;42.696;23.360;2023-05-10T13:21:51;9.55;;;5.28;;
34741;SDS011;20968;42.696;23.360;2023-05-10T13:24:16;8.13;;;4.55;;
34741;SDS011;20968;42.696;23.360;2023-05-10T13:26:42;10.48;;;4.50;;
34741;SDS011;20968;42.696;23.360;2023-05-10T13:29:08;16.60;;;4.93;;
34741;SDS011;20968;42.696;23.360;2023-05-10T13:31:34;5.35;;;4.22;;
34741;SDS011;20968;42.696;23.360;2023-05-10T13:34:00;13.18;;;5.00;;
34741;SDS011;20968;42.696;23.360;2023-05-10T13:36:27;9.52;;;4.10;;
34741;SDS011;20968;42.696;23.360;2023-05-10T13:38:54;9.52;;;4.82;;
34741;SDS011;20968;42.696;23.360;2023-05-10T13:41:19;5.90;;;4.50;;
34741;SDS011;20968;42.696;23.360;2023-05-10T13:43:45;11.65;;;4.28;;
34741;SDS011;20968;42.696;23.360;2023-05-10T13:46:14;9.43;;;4.65;;
34741;SDS011;20968;42.696;23.360;2023-05-10T13:48:41;6.68;;;4.72;;
34741;SDS011;20968;42.696;23.360;2023-05-10T13:51:06;7.88;;;4.35;;
34741;SDS011;20968;42.696;23.360;2023-05-10T13:53:32;9.32;;;4.60;;
34741;SDS011;20968;42.696;23.360;2023-05-10T13:55:57;8.65;;;5.18;;
34741;SDS011;20968;42.696;23.360;2023-05-10T13:58:23;8.68;;;4.93;;
34741;SDS011;20968;42.696;23.360;2023-05-10T14:00:49;5.55;;;4.55;;
34741;SDS011;20968;42.696;23.360;2023-05-10T14:03:14;9.30;;;5.53;;
34741;SDS011;20968;42.696;23.360;2023-05-10T14:05:40;5.82;;;4.85;;
34741;SDS011;20968;42.696;23.360;2023-05-10T14:08:07;9.40;;;4.57;;
34741;SDS011;20968;42.696;23.360;2023-05-10T14:10:34;6.53;;;4.65;;
34741;SDS011;20968;42.696;23.360;2023-05-10T14:12:59;8.82;;;4.72;;
34741;SDS011;20968;42.696;23.360;2023-05-10T14:15:30;5.72;;;4.15;;
34741;SDS011;20968;42.696;23.360;2023-05-10T14:17:55;8.32;;;6.07;;
34741;SDS011;20968;42.696;23.360;2023-05-10T14:20:21;8.02;;;5.38;;
34741;SDS011;20968;42.696;23.360;2023-05-10T14:22:47;10.73;;;4.85;;
34741;SDS011;20968;42.696;23.360;2023-05-10T14:25:13;7.68;;;5.18;;
34741;SDS011;20968;42.696;23.360;2023-05-10T14:27:40;5.38;;;4.72;;
34741;SDS011;20968;42.696;23.360;2023-05-10T14:30:05;10.82;;;5.10;;
34741;SDS011;20968;42.696;23.360;2023-05-10T14:32:31;10.55;;;5.82;;
34741;SDS011;20968;42.696;23.360;2023-05-10T14:34:57;6.25;;;5.10;;
34741;SDS011;20968;42.696;23.360;2023-05-10T14:37:22;7.25;;;5.30;;
34741;SDS011;20968;42.696;23.360;2023-05-10T14:39:48;9.38;;;4.88;;
34741;SDS011;20968;42.696;23.360;2023-05-10T14:42:13;10.05;;;5.45;;
34741;SDS011;20968;42.696;23.360;2023-05-10T14:44:38;22.33;;;8.45;;
34741;SDS011;20968;42.696;23.360;2023-05-10T14:47:04;9.18;;;5.35;;
34741;SDS011;20968;42.696;23.360;2023-05-10T14:49:30;7.28;;;5.30;;
34741;SDS011;20968;42.696;23.360;2023-05-10T14:51:55;13.15;;;4.55;;
34741;SDS011;20968;42.696;23.360;2023-05-10T14:54:21;11.50;;;4.97;;
34741;SDS011;20968;42.696;23.360;2023-05-10T14:56:46;21.52;;;7.90;;
34741;SDS011;20968;42.696;23.360;2023-05-10T14:59:13;7.15;;;4.50;;
34741;SDS011;20968;42.696;23.360;2023-05-10T15:01:41;5.20;;;3.92;;
34741;SDS011;20968;42.696;23.360;2023-05-10T15:04:07;9.23;;;4.32;;
34741;SDS011;20968;42.696;23.360;2023-05-10T15:06:34;9.43;;;4.45;;
34741;SDS011;20968;42.696;23.360;2023-05-10T15:09:00;9.27;;;5.13;;
34741;SDS011;20968;42.696;23.360;2023-05-10T15:11:28;7.30;;;4.65;;
34741;SDS011;20968;42.696;23.360;2023-05-10T15:13:54;5.65;;;4.47;;
34741;SDS011;20968;42.696;23.360;2023-05-10T15:16:20;8.25;;;4.65;;
34741;SDS011;20968;42.696;23.360;2023-05-10T15:18:46;9.80;;;4.75;;
34741;SDS011;20968;42.696;23.360;2023-05-10T15:21:11;13.07;;;4.70;;
34741;SDS011;20968;42.696;23.360;2023-05-10T15:23:37;7.40;;;4.53;;
34741;SDS011;20968;42.696;23.360;2023-05-10T15:26:03;6.97;;;5.25;;
34741;SDS011;20968;42.696;23.360;2023-05-10T15:28:28;6.75;;;4.18;;
34741;SDS011;20968;42.696;23.360;2023-05-10T15:30:54;7.60;;;4.75;;
34741;SDS011;20968;42.696;23.360;2023-05-10T15:33:21;6.43;;;4.80;;
34741;SDS011;20968;42.696;23.360;2023-05-10T15:35:46;10.43;;;5.30;;
34741;SDS011;20968;42.696;23.360;2023-05-10T15:38:12;8.27;;;4.78;;
34741;SDS011;20968;42.696;23.360;2023-05-10T15:40:37;9.57;;;5.88;;
34741;SDS011;20968;42.696;23.360;2023-05-10T15:43:03;11.18;;;6.28;;
34741;SDS011;20968;42.696;23.360;2023-05-10T15:45:33;10.43;;;5.32;;
34741;SDS011;20968;42.696;23.360;2023-05-10T15:47:59;8.45;;;6.30;;
34741;SDS011;20968;42.696;23.360;2023-05-10T15:50:25;13.68;;;5.05;;
34741;SDS011;20968;42.696;23.360;2023-05-10T15:52:51;9.63;;;4.80;;
34741;SDS011;20968;42.696;23.360;2023-05-10T15:55:18;8.70;;;5.40;;
34741;SDS011;20968;42.696;23.360;2023-05-10T15:57:44;5.93;;;4.57;;
34741;SDS011;20968;42.696;23.360;2023-05-10T16:00:11;8.35;;;4.78;;
34741;SDS011;20968;42.696;23.360;2023-05-10T16:02:40;7.43;;;4.53;;
34741;SDS011;20968;42.696;23.360;2023-05-10T16:05:06;12.70;;;7.40;;
34741;SDS011;20968;42.696;23.360;2023-05-10T16:07:32;12.85;;;5.13;;